sensor_id;sensor_type;location;lat;lon;timestamp;temperature;humidity
31597;DHT22;18201;50.978;7.034;2023-03-01T01:16:49;-1.70;1.00
31597;DHT22;18201;50.978;7.034;2023-03-01T01:17:21;-1.70;1.00
31597;DHT22;18201;50.978;7.034;2023-03-01T01:17:52;-1.70;1.00
31597;DHT22;18201;50.978;7.034;2023-03-01T01:18:23;-1.70;1.00
31597;DHT22;18201;50.978;7.034;2023-03-01T01:18:54;-1.80;1.00
31597;DHT22;18201;50.978;7.034;2023-03-01T01:19:27;-1.80;1.00
31597;DHT22;18201;50.978;7.034;2023-03-01T01:19:58;-1.70;1.00
31597;DHT22;18201;50.978;7.034;2023-03-01T01:20:29;-1.80;1.00
31597;DHT22;18201;50.978;7.034;2023-03-01T01:21:04;-1.80;1.00
31597;DHT22;18201;50.978;7.034;2023-03-01T01:21:35;-1.80;1.00
31597;DHT22;18201;50.978;7.034;2023-03-01T01:22:07;-1.80;1.00
31597;DHT22;18201;50.978;7.034;2023-03-01T01:22:38;-1.80;1.00
31597;DHT22;18201;50.978;7.034;2023-03-01T01:23:09;-1.80;1.00
31597;DHT22;18201;50.978;7.034;2023-03-01T01:23:41;-1.80;1.00
31597;DHT22;18201;50.978;7.034;2023-03-01T01:24:12;-1.80;1.00
31597;DHT22;18201;50.978;7.034;2023-03-01T01:24:44;-1.80;1.00
31597;DHT22;18201;50.978;7.034;2023-03-01T01:25:15;-1.80;6.50
31597;DHT22;18201;50.978;7.034;2023-03-01T01:25:46;-1.80;1.00
31597;DHT22;18201;50.978;7.034;2023-03-01T01:26:20;-1.80;1.00
31597;DHT22;18201;50.978;7.034;2023-03-01T01:26:51;-1.70;53.60
31597;DHT22;18201;50.978;7.034;2023-03-01T01:27:22;-1.70;78.30
31597;DHT22;18201;50.978;7.034;2023-03-01T01:27:54;-1.80;29.50
31597;DHT22;18201;50.978;7.034;2023-03-01T01:28:24;-1.70;24.70
31597;DHT22;18201;50.978;7.034;2023-03-01T01:28:55;-1.70;16.50
31597;DHT22;18201;50.978;7.034;2023-03-01T01:29:28;-1.70;1.00
31597;DHT22;18201;50.978;7.034;2023-03-01T01:29:58;-1.70;1.00
31597;DHT22;18201;50.978;7.034;2023-03-01T01:30:29;-1.70;2.50
31597;DHT22;18201;50.978;7.034;2023-03-01T01:31:01;-1.70;4.40
31597;DHT22;18201;50.978;7.034;2023-03-01T01:31:33;-1.70;1.00
31597;DHT22;18201;50.978;7.034;2023-03-01T01:32:06;-1.80;1.00
31597;DHT22;18201;50.978;7.034;2023-03-01T01:32:38;-1.70;1.00
31597;DHT22;18201;50.978;7.034;2023-03-01T01:33:09;-1.80;1.00
31597;DHT22;18201;50.978;7.034;2023-03-01T01:33:40;-1.70;1.00
31597;DHT22;18201;50.978;7.034;2023-03-01T01:34:15;-1.80;1.00
31597;DHT22;18201;50.978;7.034;2023-03-01T01:34:46;-1.70;1.00
31597;DHT22;18201;50.978;7.034;2023-03-01T01:35:17;-1.70;1.00
31597;DHT22;18201;50.978;7.034;2023-03-01T01:35:49;-1.80;1.00
31597;DHT22;18201;50.978;7.034;2023-03-01T01:36:21;-1.80;1.00
31597;DHT22;18201;50.978;7.034;2023-03-01T01:36:53;-1.80;1.00
31597;DHT22;18201;50.978;7.034;2023-03-01T01:37:25;-1.80;1.00
31597;DHT22;18201;50.978;7.034;2023-03-01T01:38:03;-1.80;1.00
31597;DHT22;18201;50.978;7.034;2023-03-01T01:38:35;-1.80;1.00
31597;DHT22;18201;50.978;7.034;2023-03-01T01:39:07;-1.80;1.00
31597;DHT22;18201;50.978;7.034;2023-03-01T01:39:37;-1.80;1.00
31597;DHT22;18201;50.978;7.034;2023-03-01T01:40:10;-1.80;1.00
31597;DHT22;18201;50.978;7.034;2023-03-01T01:40:46;-1.80;1.00
31597;DHT22;18201;50.978;7.034;2023-03-01T01:41:17;-1.80;1.00
31597;DHT22;18201;50.978;7.034;2023-03-01T01:41:49;-1.80;1.00
31597;DHT22;18201;50.978;7.034;2023-03-01T01:42:21;-1.80;1.00
31597;DHT22;18201;50.978;7.034;2023-03-01T01:42:52;-1.80;1.00
31597;DHT22;18201;50.978;7.034;2023-03-01T01:43:24;-1.80;1.00
31597;DHT22;18201;50.978;7.034;2023-03-01T01:44:16;-1.90;1.00
31597;DHT22;18201;50.978;7.034;2023-03-01T01:44:48;-1.90;1.00
31597;DHT22;18201;50.978;7.034;2023-03-01T01:45:29;-1.90;1.00
31597;DHT22;18201;50.978;7.034;2023-03-01T01:46:04;-1.90;1.00
31597;DHT22;18201;50.978;7.034;2023-03-01T01:46:39;-1.90;1.00
31597;DHT22;18201;50.978;7.034;2023-03-01T01:47:15;-1.90;1.00
31597;DHT22;18201;50.978;7.034;2023-03-01T01:47:47;-1.90;1.00
31597;DHT22;18201;50.978;7.034;2023-03-01T01:48:20;-1.90;19.80
31597;DHT22;18201;50.978;7.034;2023-03-01T01:48:55;-2.00;1.00
31597;DHT22;18201;50.978;7.034;2023-03-01T01:49:32;-2.00;1.00
31597;DHT22;18201;50.978;7.034;2023-03-01T01:50:04;-2.00;1.00
31597;DHT22;18201;50.978;7.034;2023-03-01T01:50:39;-2.00;1.00
31597;DHT22;18201;50.978;7.034;2023-03-01T01:51:13;-2.00;12.90
31597;DHT22;18201;50.978;7.034;2023-03-01T01:51:47;-2.00;36.50
31597;DHT22;18201;50.978;7.034;2023-03-01T01:52:22;-2.00;18.30
31597;DHT22;18201;50.978;7.034;2023-03-01T01:52:54;-2.00;28.50
31597;DHT22;18201;50.978;7.034;2023-03-01T01:53:26;-2.00;46.80
31597;DHT22;18201;50.978;7.034;2023-03-01T01:54:00;-2.00;85.50
31597;DHT22;18201;50.978;7.034;2023-03-01T01:54:37;-2.00;99.90
31597;DHT22;18201;50.978;7.034;2023-03-01T01:55:11;-2.00;99.90
31597;DHT22;18201;50.978;7.034;2023-03-01T01:55:50;-2.00;99.90
31597;DHT22;18201;50.978;7.034;2023-03-01T01:56:24;-2.00;99.90
31597;DHT22;18201;50.978;7.034;2023-03-01T01:57:00;-2.10;99.30
31597;DHT22;18201;50.978;7.034;2023-03-01T01:57:37;-2.00;99.90
31597;DHT22;18201;50.978;7.034;2023-03-01T01:58:10;-2.10;99.90
31597;DHT22;18201;50.978;7.034;2023-03-01T01:58:42;-2.10;99.90
31597;DHT22;18201;50.978;7.034;2023-03-01T01:59:15;-2.10;99.90
31597;DHT22;18201;50.978;7.034;2023-03-01T01:59:49;-2.10;99.90
31597;DHT22;18201;50.978;7.034;2023-03-01T02:00:23;-2.10;99.90
31597;DHT22;18201;50.978;7.034;2023-03-01T02:00:54;-2.10;99.90
31597;DHT22;18201;50.978;7.034;2023-03-01T02:01:26;-2.10;99.90
31597;DHT22;18201;50.978;7.034;2023-03-01T02:01:59;-2.10;99.90
31597;DHT22;18201;50.978;7.034;2023-03-01T02:02:32;-2.20;99.90
31597;DHT22;18201;50.978;7.034;2023-03-01T02:03:07;-2.20;99.90
31597;DHT22;18201;50.978;7.034;2023-03-01T02:03:40;-2.20;99.90
31597;DHT22;18201;50.978;7.034;2023-03-01T02:04:14;-2.20;99.90
31597;DHT22;18201;50.978;7.034;2023-03-01T02:04:46;-2.20;99.90
31597;DHT22;18201;50.978;7.034;2023-03-01T02:05:24;-2.20;99.90
31597;DHT22;18201;50.978;7.034;2023-03-01T02:05:59;-2.20;99.90
31597;DHT22;18201;50.978;7.034;2023-03-01T02:06:35;-2.20;99.90
31597;DHT22;18201;50.978;7.034;2023-03-01T02:07:13;-2.20;99.90
31597;DHT22;18201;50.978;7.034;2023-03-01T02:07:44;-2.20;99.90
31597;DHT22;18201;50.978;7.034;2023-03-01T02:08:19;-2.20;99.90
31597;DHT22;18201;50.978;7.034;2023-03-01T02:08:52;-2.20;99.90
31597;DHT22;18201;50.978;7.034;2023-03-01T02:09:23;-2.20;99.90
31597;DHT22;18201;50.978;7.034;2023-03-01T02:09:55;-2.20;99.90
31597;DHT22;18201;50.978;7.034;2023-03-01T02:10:28;-2.20;99.90
31597;DHT22;18201;50.978;7.034;2023-03-01T02:10:59;-2.20;99.90
31597;DHT22;18201;50.978;7.034;2023-03-01T02:11:34;-2.20;99.90
31597;DHT22;18201;50.978;7.034;2023-03-01T02:12:08;-2.20;99.90
31597;DHT22;18201;50.978;7.034;2023-03-01T02:12:39;-2.20;99.90
31597;DHT22;18201;50.978;7.034;2023-03-01T02:13:12;-2.20;99.90
31597;DHT22;18201;50.978;7.034;2023-03-01T02:13:43;-2.20;99.90
31597;DHT22;18201;50.978;7.034;2023-03-01T02:14:14;-2.20;99.90
31597;DHT22;18201;50.978;7.034;2023-03-01T02:14:47;-2.20;99.90
31597;DHT22;18201;50.978;7.034;2023-03-01T02:15:18;-2.20;99.90
31597;DHT22;18201;50.978;7.034;2023-03-01T02:15:49;-2.20;99.90
31597;DHT22;18201;50.978;7.034;2023-03-01T02:16:20;-2.20;99.90
31597;DHT22;18201;50.978;7.034;2023-03-01T02:16:52;-2.20;99.90
31597;DHT22;18201;50.978;7.034;2023-03-01T02:17:23;-2.20;99.90
31597;DHT22;18201;50.978;7.034;2023-03-01T02:17:56;-2.20;99.90
31597;DHT22;18201;50.978;7.034;2023-03-01T02:18:27;-2.20;99.90
31597;DHT22;18201;50.978;7.034;2023-03-01T02:18:59;-2.20;99.90
31597;DHT22;18201;50.978;7.034;2023-03-01T02:19:42;-2.20;99.90
31597;DHT22;18201;50.978;7.034;2023-03-01T02:20:19;-2.30;99.90
31597;DHT22;18201;50.978;7.034;2023-03-01T02:21:05;-2.30;99.90
31597;DHT22;18201;50.978;7.034;2023-03-01T02:21:46;-2.30;99.90
31597;DHT22;18201;50.978;7.034;2023-03-01T02:22:23;-2.30;99.90
31597;DHT22;18201;50.978;7.034;2023-03-01T02:22:55;-2.30;99.90
31597;DHT22;18201;50.978;7.034;2023-03-01T02:23:26;-2.30;99.90
31597;DHT22;18201;50.978;7.034;2023-03-01T02:23:59;-2.30;99.90
31597;DHT22;18201;50.978;7.034;2023-03-01T02:24:43;-2.30;99.90
31597;DHT22;18201;50.978;7.034;2023-03-01T02:25:26;-2.40;99.90
31597;DHT22;18201;50.978;7.034;2023-03-01T02:26:01;-2.40;99.90
31597;DHT22;18201;50.978;7.034;2023-03-01T02:26:40;-2.40;99.90
31597;DHT22;18201;50.978;7.034;2023-03-01T02:27:12;-2.40;99.90
31597;DHT22;18201;50.978;7.034;2023-03-01T02:27:51;-2.40;99.90
31597;DHT22;18201;50.978;7.034;2023-03-01T02:28:28;-2.40;99.90
31597;DHT22;18201;50.978;7.034;2023-03-01T02:29:00;-2.40;99.90
31597;DHT22;18201;50.978;7.034;2023-03-01T02:29:32;-2.40;99.90
31597;DHT22;18201;50.978;7.034;2023-03-01T02:30:03;-2.40;99.90
31597;DHT22;18201;50.978;7.034;2023-03-01T02:30:34;-2.40;99.90
31597;DHT22;18201;50.978;7.034;2023-03-01T02:31:38;-2.40;99.90
31597;DHT22;18201;50.978;7.034;2023-03-01T02:32:12;-2.50;99.90
31597;DHT22;18201;50.978;7.034;2023-03-01T02:32:46;-2.40;99.90
31597;DHT22;18201;50.978;7.034;2023-03-01T02:33:18;-2.50;99.90
31597;DHT22;18201;50.978;7.034;2023-03-01T02:33:49;-2.40;99.90
31597;DHT22;18201;50.978;7.034;2023-03-01T02:34:22;-2.50;99.90
31597;DHT22;18201;50.978;7.034;2023-03-01T02:34:55;-2.40;99.90
31597;DHT22;18201;50.978;7.034;2023-03-01T02:35:28;-2.40;99.90
31597;DHT22;18201;50.978;7.034;2023-03-01T02:36:00;-2.50;99.90
31597;DHT22;18201;50.978;7.034;2023-03-01T02:36:35;-2.50;99.90
31597;DHT22;18201;50.978;7.034;2023-03-01T02:37:09;-2.40;99.90
31597;DHT22;18201;50.978;7.034;2023-03-01T02:37:43;-2.40;1.00
31597;DHT22;18201;50.978;7.034;2023-03-01T02:38:15;-2.40;1.00
31597;DHT22;18201;50.978;7.034;2023-03-01T02:38:47;-2.40;1.00
31597;DHT22;18201;50.978;7.034;2023-03-01T02:39:21;-2.40;1.00
31597;DHT22;18201;50.978;7.034;2023-03-01T02:39:58;-2.40;1.00
31597;DHT22;18201;50.978;7.034;2023-03-01T02:40:30;-2.40;1.00
31597;DHT22;18201;50.978;7.034;2023-03-01T02:41:02;-2.40;1.00
31597;DHT22;18201;50.978;7.034;2023-03-01T02:41:44;-2.40;1.00
31597;DHT22;18201;50.978;7.034;2023-03-01T02:42:22;-2.40;1.00
31597;DHT22;18201;50.978;7.034;2023-03-01T02:42:56;-2.40;1.00
31597;DHT22;18201;50.978;7.034;2023-03-01T02:43:31;-2.40;1.00
31597;DHT22;18201;50.978;7.034;2023-03-01T02:44:03;-2.40;1.00
31597;DHT22;18201;50.978;7.034;2023-03-01T02:44:34;-2.40;1.00
31597;DHT22;18201;50.978;7.034;2023-03-01T02:45:06;-2.40;1.00
31597;DHT22;18201;50.978;7.034;2023-03-01T02:45:38;-2.40;1.00
31597;DHT22;18201;50.978;7.034;2023-03-01T02:46:16;-2.40;1.00
31597;DHT22;18201;50.978;7.034;2023-03-01T02:46:50;-2.40;1.00
31597;DHT22;18201;50.978;7.034;2023-03-01T02:47:21;-2.40;1.00
31597;DHT22;18201;50.978;7.034;2023-03-01T02:47:54;-2.40;1.00
31597;DHT22;18201;50.978;7.034;2023-03-01T02:48:28;-2.40;99.90
31597;DHT22;18201;50.978;7.034;2023-03-01T02:48:59;-2.50;99.90
31597;DHT22;18201;50.978;7.034;2023-03-01T02:49:32;-2.40;99.90
31597;DHT22;18201;50.978;7.034;2023-03-01T02:50:18;-2.40;1.00
31597;DHT22;18201;50.978;7.034;2023-03-01T02:51:05;-2.40;1.00
31597;DHT22;18201;50.978;7.034;2023-03-01T02:51:45;-2.40;1.00
31597;DHT22;18201;50.978;7.034;2023-03-01T02:52:39;-2.40;1.00
31597;DHT22;18201;50.978;7.034;2023-03-01T02:53:16;-2.40;1.00
31597;DHT22;18201;50.978;7.034;2023-03-01T02:53:59;-2.40;1.00
31597;DHT22;18201;50.978;7.034;2023-03-01T02:54:39;-2.40;1.00
31597;DHT22;18201;50.978;7.034;2023-03-01T02:55:12;-2.40;1.00
31597;DHT22;18201;50.978;7.034;2023-03-01T02:55:45;-2.40;1.00
31597;DHT22;18201;50.978;7.034;2023-03-01T02:56:16;-2.50;1.00
31597;DHT22;18201;50.978;7.034;2023-03-01T02:56:47;-2.50;1.00
31597;DHT22;18201;50.978;7.034;2023-03-01T02:57:19;-2.40;1.00
31597;DHT22;18201;50.978;7.034;2023-03-01T02:57:52;-2.50;1.00
31597;DHT22;18201;50.978;7.034;2023-03-01T02:58:24;-2.40;1.00
31597;DHT22;18201;50.978;7.034;2023-03-01T02:58:56;-2.50;1.00
31597;DHT22;18201;50.978;7.034;2023-03-01T02:59:33;-2.50;1.00
31597;DHT22;18201;50.978;7.034;2023-03-01T03:00:11;-2.50;1.00
31597;DHT22;18201;50.978;7.034;2023-03-01T03:00:49;-2.50;1.00
31597;DHT22;18201;50.978;7.034;2023-03-01T03:01:22;-2.40;1.00
31597;DHT22;18201;50.978;7.034;2023-03-01T03:01:52;-2.40;1.00
31597;DHT22;18201;50.978;7.034;2023-03-01T03:02:25;-2.40;1.00
31597;DHT22;18201;50.978;7.034;2023-03-01T03:03:07;-2.40;1.00
31597;DHT22;18201;50.978;7.034;2023-03-01T03:03:38;-2.40;1.00
31597;DHT22;18201;50.978;7.034;2023-03-01T03:04:11;-2.40;1.00
31597;DHT22;18201;50.978;7.034;2023-03-01T03:04:47;-2.40;1.00
31597;DHT22;18201;50.978;7.034;2023-03-01T03:05:20;-2.40;1.00
31597;DHT22;18201;50.978;7.034;2023-03-01T03:05:51;-2.40;1.00
31597;DHT22;18201;50.978;7.034;2023-03-01T03:06:23;-2.40;1.00
31597;DHT22;18201;50.978;7.034;2023-03-01T03:06:54;-2.40;1.00
31597;DHT22;18201;50.978;7.034;2023-03-01T03:07:24;-2.40;1.00
31597;DHT22;18201;50.978;7.034;2023-03-01T03:07:56;-2.40;1.00
31597;DHT22;18201;50.978;7.034;2023-03-01T03:08:28;-2.40;1.00
31597;DHT22;18201;50.978;7.034;2023-03-01T03:08:59;-2.40;1.00
31597;DHT22;18201;50.978;7.034;2023-03-01T03:09:30;-2.40;1.00
31597;DHT22;18201;50.978;7.034;2023-03-01T03:10:03;-2.40;1.00
31597;DHT22;18201;50.978;7.034;2023-03-01T03:10:37;-2.40;1.00
31597;DHT22;18201;50.978;7.034;2023-03-01T03:11:08;-2.40;1.00
31597;DHT22;18201;50.978;7.034;2023-03-01T03:11:40;-2.40;1.00
31597;DHT22;18201;50.978;7.034;2023-03-01T03:12:13;-2.40;1.00
31597;DHT22;18201;50.978;7.034;2023-03-01T03:12:43;-2.40;1.00
31597;DHT22;18201;50.978;7.034;2023-03-01T03:13:15;-2.40;1.00
31597;DHT22;18201;50.978;7.034;2023-03-01T03:13:47;-2.40;1.00
31597;DHT22;18201;50.978;7.034;2023-03-01T03:14:19;-2.40;1.00
31597;DHT22;18201;50.978;7.034;2023-03-01T03:14:51;-2.40;1.00
31597;DHT22;18201;50.978;7.034;2023-03-01T03:15:23;-2.40;1.00
31597;DHT22;18201;50.978;7.034;2023-03-01T03:15:55;-2.40;1.00
31597;DHT22;18201;50.978;7.034;2023-03-01T03:16:27;-2.40;1.00
31597;DHT22;18201;50.978;7.034;2023-03-01T03:17:00;-2.40;1.00
31597;DHT22;18201;50.978;7.034;2023-03-01T03:17:31;-2.40;1.00
31597;DHT22;18201;50.978;7.034;2023-03-01T03:18:07;-2.40;1.00
31597;DHT22;18201;50.978;7.034;2023-03-01T03:18:38;-2.50;1.00
31597;DHT22;18201;50.978;7.034;2023-03-01T03:19:09;-2.40;1.00
31597;DHT22;18201;50.978;7.034;2023-03-01T03:19:41;-2.40;1.00
31597;DHT22;18201;50.978;7.034;2023-03-01T03:20:17;-2.40;1.00
31597;DHT22;18201;50.978;7.034;2023-03-01T03:20:51;-2.50;1.00
31597;DHT22;18201;50.978;7.034;2023-03-01T03:21:23;-2.50;1.00
31597;DHT22;18201;50.978;7.034;2023-03-01T03:21:54;-2.50;1.00
31597;DHT22;18201;50.978;7.034;2023-03-01T03:22:25;-2.40;1.00
31597;DHT22;18201;50.978;7.034;2023-03-01T03:22:59;-2.40;1.00
31597;DHT22;18201;50.978;7.034;2023-03-01T03:23:30;-2.40;1.00
31597;DHT22;18201;50.978;7.034;2023-03-01T03:24:02;-2.40;1.00
31597;DHT22;18201;50.978;7.034;2023-03-01T03:24:33;-2.40;1.00
31597;DHT22;18201;50.978;7.034;2023-03-01T03:25:08;-2.40;1.00
31597;DHT22;18201;50.978;7.034;2023-03-01T03:25:40;-2.40;1.00
31597;DHT22;18201;50.978;7.034;2023-03-01T03:26:11;-2.40;1.00
31597;DHT22;18201;50.978;7.034;2023-03-01T03:26:45;-2.40;1.00
31597;DHT22;18201;50.978;7.034;2023-03-01T03:27:16;-2.40;1.00
31597;DHT22;18201;50.978;7.034;2023-03-01T03:27:48;-2.40;1.00
31597;DHT22;18201;50.978;7.034;2023-03-01T03:28:27;-2.40;1.00
31597;DHT22;18201;50.978;7.034;2023-03-01T03:28:57;-2.40;1.00
31597;DHT22;18201;50.978;7.034;2023-03-01T03:29:30;-2.40;1.00
31597;DHT22;18201;50.978;7.034;2023-03-01T03:30:02;-2.50;1.00
31597;DHT22;18201;50.978;7.034;2023-03-01T03:30:33;-2.50;1.00
31597;DHT22;18201;50.978;7.034;2023-03-01T03:31:06;-2.50;1.00
31597;DHT22;18201;50.978;7.034;2023-03-01T03:31:38;-2.40;1.00
31597;DHT22;18201;50.978;7.034;2023-03-01T03:32:08;-2.40;1.00
31597;DHT22;18201;50.978;7.034;2023-03-01T03:32:39;-2.40;1.00
31597;DHT22;18201;50.978;7.034;2023-03-01T03:33:11;-2.40;1.00
31597;DHT22;18201;50.978;7.034;2023-03-01T03:33:44;-2.40;1.00
31597;DHT22;18201;50.978;7.034;2023-03-01T03:34:15;-2.40;1.00
31597;DHT22;18201;50.978;7.034;2023-03-01T03:34:48;-2.50;1.00
31597;DHT22;18201;50.978;7.034;2023-03-01T03:35:23;-2.40;1.00
31597;DHT22;18201;50.978;7.034;2023-03-01T03:35:54;-2.40;1.00
31597;DHT22;18201;50.978;7.034;2023-03-01T03:36:25;-2.50;1.00
31597;DHT22;18201;50.978;7.034;2023-03-01T03:36:57;-2.50;1.00
31597;DHT22;18201;50.978;7.034;2023-03-01T03:37:29;-2.50;1.00
31597;DHT22;18201;50.978;7.034;2023-03-01T03:38:19;-2.50;1.00
31597;DHT22;18201;50.978;7.034;2023-03-01T03:38:52;-2.50;1.00
31597;DHT22;18201;50.978;7.034;2023-03-01T03:39:24;-2.40;1.00
31597;DHT22;18201;50.978;7.034;2023-03-01T03:39:55;-2.50;1.00
31597;DHT22;18201;50.978;7.034;2023-03-01T03:40:27;-2.50;1.00
31597;DHT22;18201;50.978;7.034;2023-03-01T03:41:02;-2.50;1.00
31597;DHT22;18201;50.978;7.034;2023-03-01T03:41:35;-2.50;1.00
31597;DHT22;18201;50.978;7.034;2023-03-01T03:42:06;-2.50;1.00
31597;DHT22;18201;50.978;7.034;2023-03-01T03:42:36;-2.50;1.00
31597;DHT22;18201;50.978;7.034;2023-03-01T03:43:09;-2.50;1.00
31597;DHT22;18201;50.978;7.034;2023-03-01T03:43:41;-2.50;1.00
31597;DHT22;18201;50.978;7.034;2023-03-01T03:44:13;-2.50;1.00
31597;DHT22;18201;50.978;7.034;2023-03-01T03:44:46;-2.50;1.00
31597;DHT22;18201;50.978;7.034;2023-03-01T03:45:18;-2.50;1.00
31597;DHT22;18201;50.978;7.034;2023-03-01T03:45:50;-2.50;1.00
31597;DHT22;18201;50.978;7.034;2023-03-01T03:46:21;-2.50;1.00
31597;DHT22;18201;50.978;7.034;2023-03-01T03:46:53;-2.50;1.00
31597;DHT22;18201;50.978;7.034;2023-03-01T03:47:24;-2.50;1.00
31597;DHT22;18201;50.978;7.034;2023-03-01T03:47:55;-2.50;1.00
31597;DHT22;18201;50.978;7.034;2023-03-01T03:48:26;-2.50;1.00
31597;DHT22;18201;50.978;7.034;2023-03-01T03:48:58;-2.50;1.00
31597;DHT22;18201;50.978;7.034;2023-03-01T03:49:29;-2.50;1.00
31597;DHT22;18201;50.978;7.034;2023-03-01T03:50:00;-2.50;1.00
31597;DHT22;18201;50.978;7.034;2023-03-01T03:50:31;-2.50;1.00
31597;DHT22;18201;50.978;7.034;2023-03-01T03:51:03;-2.50;1.00
31597;DHT22;18201;50.978;7.034;2023-03-01T03:51:35;-2.60;1.00
31597;DHT22;18201;50.978;7.034;2023-03-01T03:52:06;-2.50;1.00
31597;DHT22;18201;50.978;7.034;2023-03-01T03:52:43;-2.50;1.00
31597;DHT22;18201;50.978;7.034;2023-03-01T03:53:14;-2.60;1.00
31597;DHT22;18201;50.978;7.034;2023-03-01T03:53:45;-2.50;1.00
31597;DHT22;18201;50.978;7.034;2023-03-01T03:54:17;-2.50;1.00
31597;DHT22;18201;50.978;7.034;2023-03-01T03:54:48;-2.50;1.00
31597;DHT22;18201;50.978;7.034;2023-03-01T03:55:19;-2.50;1.00
31597;DHT22;18201;50.978;7.034;2023-03-01T03:55:50;-2.50;1.00
31597;DHT22;18201;50.978;7.034;2023-03-01T03:56:22;-2.50;1.00
31597;DHT22;18201;50.978;7.034;2023-03-01T03:56:56;-2.50;1.00
31597;DHT22;18201;50.978;7.034;2023-03-01T03:57:27;-2.50;1.00
31597;DHT22;18201;50.978;7.034;2023-03-01T03:57:58;-2.50;1.00
31597;DHT22;18201;50.978;7.034;2023-03-01T03:58:32;-2.50;1.00
31597;DHT22;18201;50.978;7.034;2023-03-01T03:59:03;-2.50;1.00
31597;DHT22;18201;50.978;7.034;2023-03-01T03:59:36;-2.50;1.00
31597;DHT22;18201;50.978;7.034;2023-03-01T04:00:11;-2.50;1.00
31597;DHT22;18201;50.978;7.034;2023-03-01T04:00:44;-2.50;1.00
31597;DHT22;18201;50.978;7.034;2023-03-01T04:01:15;-2.50;1.00
31597;DHT22;18201;50.978;7.034;2023-03-01T04:01:47;-2.50;1.00
31597;DHT22;18201;50.978;7.034;2023-03-01T04:02:17;-2.50;1.00
31597;DHT22;18201;50.978;7.034;2023-03-01T04:02:52;-2.50;1.00
31597;DHT22;18201;50.978;7.034;2023-03-01T04:03:28;-2.50;1.00
31597;DHT22;18201;50.978;7.034;2023-03-01T04:04:00;-2.50;1.00
31597;DHT22;18201;50.978;7.034;2023-03-01T04:04:34;-2.50;1.00
31597;DHT22;18201;50.978;7.034;2023-03-01T04:05:06;-2.50;1.00
31597;DHT22;18201;50.978;7.034;2023-03-01T04:05:39;-2.50;1.00
31597;DHT22;18201;50.978;7.034;2023-03-01T04:06:11;-2.60;1.00
31597;DHT22;18201;50.978;7.034;2023-03-01T04:06:42;-2.50;1.00
31597;DHT22;18201;50.978;7.034;2023-03-01T04:07:14;-2.60;1.00
31597;DHT22;18201;50.978;7.034;2023-03-01T04:07:45;-2.50;1.00
31597;DHT22;18201;50.978;7.034;2023-03-01T04:08:16;-2.60;1.00
31597;DHT22;18201;50.978;7.034;2023-03-01T04:08:50;-2.60;1.00
31597;DHT22;18201;50.978;7.034;2023-03-01T04:09:21;-2.50;1.00
31597;DHT22;18201;50.978;7.034;2023-03-01T04:09:52;-2.50;1.00
31597;DHT22;18201;50.978;7.034;2023-03-01T04:10:27;-2.50;1.00
31597;DHT22;18201;50.978;7.034;2023-03-01T04:11:00;-2.60;1.00
31597;DHT22;18201;50.978;7.034;2023-03-01T04:11:31;-2.50;1.00
31597;DHT22;18201;50.978;7.034;2023-03-01T04:12:05;-2.60;1.00
31597;DHT22;18201;50.978;7.034;2023-03-01T04:12:37;-2.50;1.00
31597;DHT22;18201;50.978;7.034;2023-03-01T04:13:11;-2.50;1.00
31597;DHT22;18201;50.978;7.034;2023-03-01T04:13:42;-2.60;1.00
31597;DHT22;18201;50.978;7.034;2023-03-01T04:14:13;-2.50;1.00
31597;DHT22;18201;50.978;7.034;2023-03-01T04:14:44;-2.60;1.00
31597;DHT22;18201;50.978;7.034;2023-03-01T04:15:16;-2.50;1.00
31597;DHT22;18201;50.978;7.034;2023-03-01T04:15:50;-2.50;1.00
31597;DHT22;18201;50.978;7.034;2023-03-01T04:16:21;-2.50;1.00
31597;DHT22;18201;50.978;7.034;2023-03-01T04:16:52;-2.50;1.00
31597;DHT22;18201;50.978;7.034;2023-03-01T04:17:24;-2.60;1.00
31597;DHT22;18201;50.978;7.034;2023-03-01T04:17:55;-2.60;1.00
31597;DHT22;18201;50.978;7.034;2023-03-01T04:18:26;-2.50;1.00
31597;DHT22;18201;50.978;7.034;2023-03-01T04:18:58;-2.60;1.00
31597;DHT22;18201;50.978;7.034;2023-03-01T04:19:31;-2.50;1.00
31597;DHT22;18201;50.978;7.034;2023-03-01T04:20:07;-2.60;1.00
31597;DHT22;18201;50.978;7.034;2023-03-01T04:20:40;-2.60;1.00
31597;DHT22;18201;50.978;7.034;2023-03-01T04:21:11;-2.50;1.00
31597;DHT22;18201;50.978;7.034;2023-03-01T04:21:42;-2.50;1.00
31597;DHT22;18201;50.978;7.034;2023-03-01T04:22:14;-2.50;1.00
31597;DHT22;18201;50.978;7.034;2023-03-01T04:22:47;-2.60;1.00
31597;DHT22;18201;50.978;7.034;2023-03-01T04:23:20;-2.50;1.00
31597;DHT22;18201;50.978;7.034;2023-03-01T04:23:52;-2.50;1.00
31597;DHT22;18201;50.978;7.034;2023-03-01T04:24:23;-2.50;1.00
31597;DHT22;18201;50.978;7.034;2023-03-01T04:24:53;-2.60;1.00
31597;DHT22;18201;50.978;7.034;2023-03-01T04:25:26;-2.50;1.00
31597;DHT22;18201;50.978;7.034;2023-03-01T04:25:58;-2.60;1.00
31597;DHT22;18201;50.978;7.034;2023-03-01T04:26:29;-2.60;1.00
31597;DHT22;18201;50.978;7.034;2023-03-01T04:27:01;-2.50;1.00
31597;DHT22;18201;50.978;7.034;2023-03-01T04:27:33;-2.60;1.00
31597;DHT22;18201;50.978;7.034;2023-03-01T04:28:04;-2.50;1.00
31597;DHT22;18201;50.978;7.034;2023-03-01T04:28:36;-2.60;1.00
31597;DHT22;18201;50.978;7.034;2023-03-01T04:29:09;-2.50;1.00
31597;DHT22;18201;50.978;7.034;2023-03-01T04:29:40;-2.60;1.00
31597;DHT22;18201;50.978;7.034;2023-03-01T04:30:11;-2.50;1.00
31597;DHT22;18201;50.978;7.034;2023-03-01T04:30:44;-2.50;1.00
31597;DHT22;18201;50.978;7.034;2023-03-01T04:31:17;-2.50;1.00
31597;DHT22;18201;50.978;7.034;2023-03-01T04:31:48;-2.60;1.00
31597;DHT22;18201;50.978;7.034;2023-03-01T04:32:20;-2.50;1.00
31597;DHT22;18201;50.978;7.034;2023-03-01T04:32:54;-2.50;1.00
31597;DHT22;18201;50.978;7.034;2023-03-01T04:33:25;-2.50;1.00
31597;DHT22;18201;50.978;7.034;2023-03-01T04:33:58;-2.60;1.00
31597;DHT22;18201;50.978;7.034;2023-03-01T04:34:30;-2.50;1.00
31597;DHT22;18201;50.978;7.034;2023-03-01T04:35:04;-2.50;1.00
31597;DHT22;18201;50.978;7.034;2023-03-01T04:35:36;-2.50;1.00
31597;DHT22;18201;50.978;7.034;2023-03-01T04:36:08;-2.50;1.00
31597;DHT22;18201;50.978;7.034;2023-03-01T04:36:41;-2.60;1.00
31597;DHT22;18201;50.978;7.034;2023-03-01T04:37:12;-2.60;1.00
31597;DHT22;18201;50.978;7.034;2023-03-01T04:37:43;-2.50;1.00
31597;DHT22;18201;50.978;7.034;2023-03-01T04:38:16;-2.60;1.00
31597;DHT22;18201;50.978;7.034;2023-03-01T04:38:48;-2.50;1.00
31597;DHT22;18201;50.978;7.034;2023-03-01T04:39:19;-2.50;1.00
31597;DHT22;18201;50.978;7.034;2023-03-01T04:39:50;-2.50;1.00
31597;DHT22;18201;50.978;7.034;2023-03-01T04:40:20;-2.60;1.00
31597;DHT22;18201;50.978;7.034;2023-03-01T04:40:52;-2.60;1.00
31597;DHT22;18201;50.978;7.034;2023-03-01T04:41:24;-2.60;1.00
31597;DHT22;18201;50.978;7.034;2023-03-01T04:41:56;-2.60;1.00
31597;DHT22;18201;50.978;7.034;2023-03-01T04:42:27;-2.50;1.00
31597;DHT22;18201;50.978;7.034;2023-03-01T04:42:58;-2.50;1.00
31597;DHT22;18201;50.978;7.034;2023-03-01T04:43:29;-2.50;1.00
31597;DHT22;18201;50.978;7.034;2023-03-01T04:44:01;-2.50;1.00
31597;DHT22;18201;50.978;7.034;2023-03-01T04:44:32;-2.60;1.00
31597;DHT22;18201;50.978;7.034;2023-03-01T04:45:03;-2.50;1.00
31597;DHT22;18201;50.978;7.034;2023-03-01T04:45:44;-2.60;1.00
31597;DHT22;18201;50.978;7.034;2023-03-01T04:46:18;-2.50;1.00
31597;DHT22;18201;50.978;7.034;2023-03-01T04:46:49;-2.50;1.00
31597;DHT22;18201;50.978;7.034;2023-03-01T04:47:20;-2.50;1.00
31597;DHT22;18201;50.978;7.034;2023-03-01T04:47:52;-2.60;1.00
31597;DHT22;18201;50.978;7.034;2023-03-01T04:48:23;-2.60;1.00